createdAt,value
2023-06-13T00:01:07.260Z,93.58
2023-06-13T00:06:03.942Z,97.40
2023-06-13T00:11:00.680Z,91.82
2023-06-13T00:16:00.112Z,91.01
2023-06-13T00:20:56.903Z,93.29
2023-06-13T00:25:54.474Z,96.63
2023-06-13T00:30:52.296Z,96.70
2023-06-13T00:35:48.823Z,99.02
2023-06-13T00:40:46.094Z,100.00
2023-06-13T00:45:42.660Z,100.00
2023-06-13T00:50:45.937Z,100.00
2023-06-13T00:55:43.469Z,100.00
2023-06-13T01:00:40.838Z,100.00
2023-06-13T01:05:40.285Z,100.00
2023-06-13T01:10:41.341Z,100.00
2023-06-13T01:15:46.269Z,100.00
2023-06-13T01:20:45.965Z,100.00
2023-06-13T01:25:58.491Z,100.00
2023-06-13T01:30:56.903Z,100.00
2023-06-13T01:35:54.279Z,100.00
2023-06-13T01:40:50.806Z,100.00
2023-06-13T01:45:47.690Z,100.00
2023-06-13T01:50:50.265Z,100.00
2023-06-13T01:55:53.900Z,100.00
2023-06-13T02:00:52.394Z,100.00
2023-06-13T02:05:49.296Z,100.00
2023-06-13T02:10:46.383Z,100.00
2023-06-13T02:15:42.818Z,100.00
2023-06-13T02:20:39.238Z,100.00
2023-06-13T02:25:36.605Z,100.00
2023-06-13T02:30:33.195Z,100.00
2023-06-13T02:35:49.861Z,100.00
2023-06-13T02:40:46.371Z,100.00
2023-06-13T02:45:42.807Z,100.00
2023-06-13T02:50:39.287Z,100.00
2023-06-13T02:55:35.758Z,100.00
2023-06-13T03:00:32.553Z,100.00
2023-06-13T03:05:28.991Z,100.00
2023-06-13T03:10:25.997Z,100.00
2023-06-13T03:15:22.977Z,100.00
2023-06-13T03:20:27.723Z,100.00
2023-06-13T03:25:25.933Z,100.00
2023-06-13T03:30:22.523Z,100.00
2023-06-13T03:35:19.004Z,100.00
2023-06-13T03:40:16.159Z,100.00
2023-06-13T03:45:16.676Z,100.00
2023-06-13T03:50:13.564Z,100.00
2023-06-13T03:55:11.250Z,100.00
2023-06-13T04:00:09.696Z,100.00
2023-06-13T04:05:08.041Z,100.00
2023-06-13T04:10:05.049Z,100.00
2023-06-13T04:15:01.537Z,100.00
2023-06-13T04:19:58.026Z,100.00
2023-06-13T04:24:55.153Z,100.00
2023-06-13T04:29:54.202Z,100.00
2023-06-13T04:34:55.065Z,100.00
2023-06-13T04:39:52.657Z,100.00
2023-06-13T04:44:49.327Z,100.00
2023-06-13T04:49:46.240Z,100.00
2023-06-13T04:54:42.832Z,100.00
2023-06-13T04:59:40.252Z,100.00
2023-06-13T05:04:38.206Z,100.00
2023-06-13T05:09:34.772Z,100.00
2023-06-13T05:14:31.406Z,100.00
2023-06-13T05:19:28.751Z,100.00
2023-06-13T05:24:25.265Z,100.00
2023-06-13T05:29:21.749Z,100.00
2023-06-13T05:34:18.587Z,100.00
2023-06-13T05:39:15.054Z,100.00
2023-06-13T05:44:14.210Z,97.92
2023-06-13T05:49:10.700Z,96.73
2023-06-13T05:54:07.251Z,92.99
2023-06-13T05:59:03.780Z,90.87
2023-06-13T06:04:00.452Z,81.06
2023-06-13T06:08:57.070Z,79.63
2023-06-13T06:13:53.510Z,77.16
2023-06-13T06:18:51.602Z,78.50
2023-06-13T06:23:48.815Z,80.57
2023-06-13T06:28:45.379Z,76.65
2023-06-13T06:33:41.842Z,67.39
2023-06-13T06:38:38.310Z,61.94
2023-06-13T06:43:34.889Z,60.71
2023-06-13T06:48:31.340Z,57.05
2023-06-13T06:53:29.695Z,58.79
2023-06-13T06:58:26.178Z,59.41
2023-06-13T07:03:22.662Z,53.62
2023-06-13T07:08:19.277Z,51.65
2023-06-13T07:13:15.777Z,52.29
2023-06-13T07:18:12.288Z,52.37
2023-06-13T07:23:08.784Z,51.88
2023-06-13T07:28:05.192Z,48.03
2023-06-13T07:33:01.827Z,46.96
2023-06-13T07:37:58.801Z,46.86
2023-06-13T07:42:56.018Z,48.49
2023-06-13T07:47:52.956Z,43.93
2023-06-13T07:52:49.545Z,44.50
2023-06-13T07:57:59.065Z,42.07
2023-06-13T08:02:59.344Z,41.99
2023-06-13T08:07:57.016Z,38.02
2023-06-13T08:12:53.588Z,37.94
2023-06-13T08:17:50.154Z,39.52
2023-06-13T08:22:46.731Z,38.21
2023-06-13T08:27:45.465Z,37.39
2023-06-13T08:32:42.724Z,35.09
2023-06-13T08:37:39.941Z,39.20
2023-06-13T08:42:37.562Z,35.68
2023-06-13T08:47:37.709Z,41.21
2023-06-13T08:52:42.523Z,36.58
2023-06-13T08:57:40.816Z,35.65
2023-06-13T09:02:37.729Z,35.68
2023-06-13T09:07:34.953Z,36.90
2023-06-13T09:12:31.894Z,36.57
2023-06-13T09:17:28.919Z,35.23
2023-06-13T09:22:26.002Z,35.91
2023-06-13T09:27:22.645Z,36.57
2023-06-13T09:32:24.330Z,34.87
2023-06-13T09:37:21.448Z,39.42
2023-06-13T09:42:24.288Z,39.48
2023-06-13T09:47:23.727Z,37.05
2023-06-13T09:52:26.702Z,36.05
2023-06-13T09:57:29.574Z,38.49
2023-06-13T10:02:35.023Z,35.50
2023-06-13T10:07:31.908Z,35.54
2023-06-13T10:12:29.049Z,35.20
2023-06-13T10:17:29.962Z,34.14
2023-06-13T10:22:26.598Z,37.72
2023-06-13T10:27:25.294Z,35.19
2023-06-13T10:32:21.699Z,35.81
2023-06-13T10:37:43.225Z,36.66
2023-06-13T10:43:08.966Z,35.96
2023-06-13T10:48:07.419Z,33.60
2023-06-13T10:53:03.909Z,34.45
2023-06-13T10:58:02.399Z,36.89
2023-06-13T11:03:06.305Z,36.70
2023-06-13T11:08:06.121Z,36.53
2023-06-13T11:13:05.478Z,35.08
2023-06-13T11:18:22.030Z,34.42
2023-06-13T11:23:19.543Z,34.70
2023-06-13T11:28:16.349Z,36.81
2023-06-13T11:33:13.467Z,36.40
2023-06-13T11:38:19.362Z,37.38
2023-06-13T11:43:15.946Z,36.61
2023-06-13T11:48:18.700Z,34.95
2023-06-13T11:53:15.210Z,35.53
2023-06-13T11:58:11.831Z,36.38
2023-06-13T12:03:08.443Z,36.71
2023-06-13T12:08:05.490Z,35.41
2023-06-13T12:13:01.924Z,37.59
2023-06-13T12:18:03.656Z,35.46
2023-06-13T12:23:01.542Z,34.85
2023-06-13T12:28:02.393Z,37.83
2023-06-13T12:32:59.120Z,35.23
2023-06-13T12:37:56.172Z,34.74
2023-06-13T12:42:53.593Z,37.67
2023-06-13T12:47:54.270Z,35.21
2023-06-13T12:52:51.477Z,35.86
2023-06-13T12:57:47.988Z,38.63
2023-06-13T13:02:44.546Z,39.02
2023-06-13T13:07:41.003Z,39.08
2023-06-13T13:12:37.427Z,38.71
2023-06-13T13:17:34.189Z,37.77
2023-06-13T13:22:30.679Z,36.86
2023-06-13T13:27:27.246Z,35.90
2023-06-13T13:32:24.659Z,35.62
2023-06-13T13:37:21.356Z,35.28
2023-06-13T13:42:26.104Z,34.33
2023-06-13T13:47:23.645Z,35.52
2023-06-13T13:52:20.472Z,34.88
2023-06-13T13:57:17.097Z,35.65
2023-06-13T14:02:13.795Z,33.48
2023-06-13T14:07:10.204Z,32.15
2023-06-13T14:12:07.382Z,33.40
2023-06-13T14:17:03.941Z,33.39
2023-06-13T14:22:00.518Z,32.80
2023-06-13T14:26:57.604Z,33.37
2023-06-13T14:31:54.132Z,33.00
2023-06-13T14:36:54.475Z,33.27
2023-06-13T14:41:51.599Z,32.12
2023-06-13T14:46:48.163Z,32.70
2023-06-13T14:51:44.655Z,32.09
2023-06-13T14:56:41.140Z,32.36
2023-06-13T15:01:38.289Z,32.13
2023-06-13T15:06:34.773Z,33.79
2023-06-13T15:11:31.297Z,32.81
2023-06-13T15:16:27.918Z,32.68
2023-06-13T15:21:24.528Z,31.92
2023-06-13T15:26:22.348Z,32.09
2023-06-13T15:31:19.055Z,34.05
2023-06-13T15:36:15.592Z,34.49
2023-06-13T15:41:12.129Z,34.08
2023-06-13T15:46:08.542Z,33.35
2023-06-13T15:51:04.935Z,32.25
2023-06-13T15:56:04.529Z,32.13
2023-06-13T16:01:01.297Z,33.06
2023-06-13T16:05:58.084Z,31.50
2023-06-13T16:10:54.502Z,31.93
2023-06-13T16:15:51.561Z,32.47
2023-06-13T16:20:48.148Z,32.41
2023-06-13T16:25:45.136Z,30.59
2023-06-13T16:30:42.845Z,31.34
2023-06-13T16:35:39.460Z,31.16
2023-06-13T16:40:35.890Z,30.54
2023-06-13T16:45:32.825Z,30.44
2023-06-13T16:50:29.579Z,28.84
2023-06-13T16:55:26.810Z,27.77
2023-06-13T17:00:23.296Z,27.61
2023-06-13T17:05:19.934Z,25.02
2023-06-13T17:10:18.377Z,23.53
2023-06-13T17:15:15.493Z,22.72
2023-06-13T17:20:12.307Z,21.16
2023-06-13T17:25:08.927Z,21.41
2023-06-13T17:30:06.094Z,22.00
2023-06-13T17:35:03.250Z,21.56
2023-06-13T17:39:59.776Z,20.93
2023-06-13T17:44:56.370Z,21.05
2023-06-13T17:49:52.876Z,21.80
2023-06-13T17:54:49.354Z,22.99
2023-06-13T17:59:46.371Z,23.71
2023-06-13T18:04:43.032Z,25.31
2023-06-13T18:09:39.531Z,26.51
2023-06-13T18:14:35.885Z,25.46
2023-06-13T18:19:32.525Z,24.38
2023-06-13T18:24:29.061Z,23.81
2023-06-13T18:29:25.623Z,24.91
2023-06-13T18:34:22.054Z,24.65
2023-06-13T18:39:18.610Z,26.28
2023-06-13T18:44:15.109Z,25.99
2023-06-13T18:49:11.639Z,26.69
2023-06-13T18:54:08.127Z,27.75
2023-06-13T18:59:04.554Z,27.83
2023-06-13T19:04:01.224Z,30.64
2023-06-13T19:08:58.354Z,29.98
2023-06-13T19:13:54.964Z,30.08
2023-06-13T19:18:51.779Z,34.95
2023-06-13T19:23:48.486Z,36.05
2023-06-13T19:28:44.857Z,39.89
2023-06-13T19:33:42.952Z,42.07
2023-06-13T19:38:39.421Z,43.68
2023-06-13T19:43:36.256Z,43.64
2023-06-13T19:48:34.186Z,43.82
2023-06-13T19:53:32.573Z,45.08
2023-06-13T19:58:31.336Z,48.37
2023-06-13T20:03:27.812Z,49.34
2023-06-13T20:08:24.250Z,51.49
2023-06-13T20:13:21.167Z,51.56
2023-06-13T20:18:17.609Z,52.22
2023-06-13T20:23:14.211Z,52.20
2023-06-13T20:28:10.887Z,52.72
2023-06-13T20:33:07.389Z,51.24
2023-06-13T20:38:04.553Z,48.56
2023-06-13T20:43:01.172Z,46.64
2023-06-13T20:47:57.841Z,46.17
2023-06-13T20:52:54.915Z,45.71
2023-06-13T20:57:52.958Z,46.27
2023-06-13T21:02:57.857Z,46.31
2023-06-13T21:07:58.268Z,45.01
2023-06-13T21:12:54.872Z,46.06
2023-06-13T21:17:53.890Z,46.59
2023-06-13T21:22:50.769Z,46.68
2023-06-13T21:27:47.729Z,46.56
2023-06-13T21:32:44.666Z,47.93
2023-06-13T21:37:41.481Z,48.00
2023-06-13T21:42:38.401Z,48.50
2023-06-13T21:47:35.430Z,49.87
2023-06-13T21:52:32.226Z,49.52
2023-06-13T21:57:28.644Z,49.69
2023-06-13T22:02:25.145Z,50.55
2023-06-13T22:07:21.699Z,50.03
2023-06-13T22:12:18.930Z,49.68
2023-06-13T22:17:16.294Z,50.64
2023-06-13T22:22:15.062Z,50.51
2023-06-13T22:27:11.484Z,51.36
2023-06-13T22:32:08.261Z,52.30
2023-06-13T22:37:05.024Z,52.97
2023-06-13T22:42:01.468Z,53.90
2023-06-13T22:46:57.874Z,53.52
2023-06-13T22:51:54.291Z,54.10
2023-06-13T22:56:50.806Z,55.28
2023-06-13T23:01:47.282Z,55.82
2023-06-13T23:06:44.456Z,56.06
2023-06-13T23:11:41.129Z,57.09
2023-06-13T23:16:39.195Z,58.43
2023-06-13T23:21:35.796Z,59.88
2023-06-13T23:26:32.691Z,61.53
2023-06-13T23:31:29.815Z,62.16
2023-06-13T23:36:29.073Z,63.43
2023-06-13T23:41:27.595Z,64.49
2023-06-13T23:46:24.427Z,67.47
2023-06-13T23:51:21.020Z,71.30
2023-06-13T23:56:17.412Z,74.39
